Main page
METAR-TAF:

METAR-TAF

Airports :

Campbeltown Airport

Campbeltown, Scotland

latitude: 55-26-14N, longitude: 005-41-11W, elevation: 13 m

Current weather observation

The report was made 4 hours and 20 minutes ago, at 09:50 UTC
Wind 12 kt from the East/Southeast
Temperature 5°C
Humidity 87%
Pressure 1030 hPa
Visibility 10 km or more
Broken clouds at a height of 900 ft

METAR: EGEC 020950Z 12012KT 9999 BKN009 05/03 Q1030

Time: 14:10 (14:10 UTC)

Forecast

The report was made 6 hours and 11 minutes ago, at 07:59 UTC
Forecast valid from 02 at 09 UTC to 02 at 11 UTC
Wind 9 kt from the Southeast
Visibility 10 km or more
Scattered clouds at a height of 3000 ft
Probability 30% :
Temporary
from 02 at 09 UTC to 02 at 11 UTC
Visibility: 7000 m
Broken clouds at a height of 800 ft

TAF: EGEC 020759Z 0209/0211 14009KT 9999 SCT030 PROB30 TEMPO 0209/0211 7000 BKN008

Weather observations and forecasts of more than 4000 airports (METAR and TAF reports).

The available stations are represented by yellow and red dots on the map.

Hover mouse over dot to see the name of the station.

Then click to see weather observations and forecasts.

To change the map : click on the green buttons with a black cross to zoom in, on the green button with a dash to zoom out, or on the green arrows for adjacent maps.


METAR-TAF: